Time;durP1;ratioP1;P1;durP2;ratioP2;P2;SDS_P1;SDS_P2;PMS_P1;PMS_P2;Temp;Humidity;BMP_temperature;BMP_pressure;BME280_temperature;BME280_humidity;BME280_pressure;Samples;Min_cycle;Max_cycle;Signal;HPM_P1;HPM_P2
2020/12/31 00:01:56;;;;;;;7.00;4.53;;;;;;;3.83;75.56;97065.00;4975563;28;20339;-84
2020/12/31 00:04:23;;;;;;;6.23;4.50;;;;;;;3.84;76.22;97077.00;4981882;28;20371;-84
2020/12/31 00:06:49;;;;;;;6.10;4.40;;;;;;;3.85;76.11;97073.53;4979209;28;20252;-82
2020/12/31 00:09:16;;;;;;;6.73;4.70;;;;;;;3.86;76.00;97070.94;4981945;28;20224;-82
2020/12/31 00:11:42;;;;;;;9.27;5.43;;;;;;;3.89;75.94;97074.31;4980183;28;20338;-82
2020/12/31 00:14:09;;;;;;;7.23;4.40;;;;;;;3.86;75.74;97073.50;4980017;28;20277;-83
2020/12/31 00:16:35;;;;;;;7.40;4.47;;;;;;;3.85;76.27;97073.53;4981391;28;20244;-83
2020/12/31 00:19:01;;;;;;;7.90;4.83;;;;;;;3.84;75.91;97061.53;4976744;28;20222;-84
2020/12/31 00:21:28;;;;;;;7.77;4.90;;;;;;;3.86;76.13;97073.50;4978567;28;20635;-85
2020/12/31 00:23:55;;;;;;;7.73;5.33;;;;;;;3.87;75.98;97066.59;4980237;28;20216;-83
2020/12/31 00:26:21;;;;;;;7.90;5.50;;;;;;;3.83;75.80;97070.16;4983088;28;20885;-83
2020/12/31 00:28:47;;;;;;;7.40;5.50;;;;;;;3.78;75.98;97066.88;4980820;28;20230;-83
2020/12/31 00:31:14;;;;;;;6.27;4.83;;;;;;;3.75;76.17;97065.25;4977855;28;20744;-84
2020/12/31 00:33:40;;;;;;;7.73;5.40;;;;;;;3.73;75.99;97066.16;4982502;28;20220;-85
2020/12/31 00:36:06;;;;;;;7.63;5.37;;;;;;;3.69;76.08;97067.97;4977944;28;20748;-84
2020/12/31 00:38:34;;;;;;;6.47;5.73;;;;;;;3.68;76.48;97071.47;4984947;28;20227;-82
2020/12/31 00:41:01;;;;;;;7.70;5.73;;;;;;;3.70;76.11;97063.69;4979733;28;20290;-81
2020/12/31 00:43:28;;;;;;;10.20;5.60;;;;;;;3.69;76.70;97056.81;4982094;28;20584;-82
2020/12/31 00:45:54;;;;;;;6.93;5.20;;;;;;;3.67;76.29;97070.59;4977470;28;20330;-84
2020/12/31 00:48:21;;;;;;;8.97;6.03;;;;;;;3.66;76.69;97061.19;4977767;28;20220;-84
2020/12/31 00:50:47;;;;;;;8.87;6.13;;;;;;;3.63;76.69;97069.00;4979006;28;20298;-83
2020/12/31 00:53:13;;;;;;;7.77;5.23;;;;;;;3.61;76.50;97070.78;4982666;28;20244;-83
2020/12/31 00:55:41;;;;;;;8.80;5.43;;;;;;;3.60;76.77;97068.22;4980691;28;20891;-82
2020/12/31 00:58:07;;;;;;;8.30;5.80;;;;;;;3.58;77.06;97060.53;4977997;28;20579;-82
2020/12/31 01:00:34;;;;;;;9.23;6.10;;;;;;;3.57;76.71;97069.19;4980328;28;20665;-83
2020/12/31 01:03:00;;;;;;;10.37;6.57;;;;;;;3.53;76.84;97065.00;4978928;28;20258;-82
2020/12/31 01:05:27;;;;;;;7.83;5.43;;;;;;;3.53;76.72;97072.75;4978656;28;20250;-82
2020/12/31 01:07:53;;;;;;;7.67;6.30;;;;;;;3.51;77.20;97071.94;4981855;28;20212;-84
2020/12/31 01:10:20;;;;;;;8.07;5.87;;;;;;;3.49;76.84;97076.25;4981929;28;20707;-83
2020/12/31 01:12:47;;;;;;;9.23;6.00;;;;;;;3.48;77.13;97077.16;4981860;28;20237;-83
2020/12/31 01:15:14;;;;;;;8.93;6.37;;;;;;;3.45;77.35;97075.50;4981462;28;20232;-83
2020/12/31 01:17:40;;;;;;;8.03;6.43;;;;;;;3.43;77.08;97076.44;4981940;28;20774;-83
2020/12/31 01:20:07;;;;;;;8.33;6.00;;;;;;;3.40;77.23;97073.94;4977895;28;20215;-83
2020/12/31 01:22:34;;;;;;;8.90;6.43;;;;;;;3.37;77.60;97071.47;4983497;28;20215;-84
2020/12/31 01:25:00;;;;;;;7.10;5.60;;;;;;;3.34;77.80;97068.97;4977655;28;20326;-84
2020/12/31 01:27:26;;;;;;;7.53;5.40;;;;;;;3.27;77.61;97076.88;4978912;28;21009;-82
2020/12/31 01:29:53;;;;;;;8.87;5.93;;;;;;;3.28;77.76;97068.22;4979853;28;20227;-82
2020/12/31 01:32:22;;;;;;;7.27;6.00;;;;;;;3.29;77.58;97069.09;4982762;28;20338;-82
2020/12/31 01:34:48;;;;;;;9.83;6.73;;;;;;;3.26;77.64;97075.16;4979729;28;20231;-83
2020/12/31 01:37:16;;;;;;;9.17;6.60;;;;;;;3.28;77.55;97072.53;4981908;28;20248;-82
2020/12/31 01:39:42;;;;;;;8.37;6.93;;;;;;;3.28;77.74;97070.81;4982947;28;20252;-82
2020/12/31 01:42:09;;;;;;;8.23;6.30;;;;;;;3.27;77.91;97076.00;4978453;28;20322;-81
2020/12/31 01:44:35;;;;;;;10.20;6.70;;;;;;;3.28;77.64;97083.69;4978053;28;20220;-81
2020/12/31 01:47:02;;;;;;;9.77;6.27;;;;;;;3.28;77.48;97086.28;4976244;28;20243;-81
2020/12/31 01:49:29;;;;;;;7.90;6.10;;;;;;;3.30;77.50;97086.22;4981963;28;20241;-82
2020/12/31 01:51:56;;;;;;;8.07;6.43;;;;;;;3.30;77.44;97083.66;4978713;28;20705;-82
2020/12/31 01:54:22;;;;;;;8.63;6.67;;;;;;;3.33;77.52;97075.84;4976180;28;20223;-84
2020/12/31 01:56:49;;;;;;;8.07;6.00;;;;;;;3.36;77.36;97085.22;4979257;28;20247;-82
2020/12/31 01:59:16;;;;;;;8.53;6.43;;;;;;;3.34;77.76;97081.84;4982154;28;20747;-83
2020/12/31 02:01:42;;;;;;;8.97;6.47;;;;;;;3.36;77.63;97092.97;4980735;28;20232;-83
2020/12/31 02:04:09;;;;;;;9.93;6.50;;;;;;;3.39;77.35;97085.16;4980134;28;20311;-84
2020/12/31 02:06:37;;;;;;;8.57;6.23;;;;;;;3.33;77.63;97075.84;4974399;28;20259;-83
2020/12/31 02:09:04;;;;;;;9.80;7.03;;;;;;;3.32;77.75;97086.19;4978919;28;20940;-83
2020/12/31 02:11:30;;;;;;;9.80;6.17;;;;;;;3.33;77.61;97090.44;4983848;28;20297;-82
2020/12/31 02:13:56;;;;;;;9.07;6.60;;;;;;;3.30;77.53;97085.41;4979408;28;20216;-83
2020/12/31 02:16:25;;;;;;;8.33;6.80;;;;;;;3.25;77.76;97088.09;4973508;28;20251;-84
2020/12/31 02:18:56;;;;;;;9.23;7.10;;;;;;;3.22;77.50;97091.59;4979962;28;20941;-84
2020/12/31 02:21:25;;;;;;;9.30;7.27;;;;;;;3.20;77.82;97098.53;4978166;28;20236;-81
2020/12/31 02:23:52;;;;;;;9.33;6.70;;;;;;;3.20;77.62;97095.94;4976577;28;20530;-83
2020/12/31 02:26:19;;;;;;;9.57;7.13;;;;;;;3.14;77.76;97096.09;4976958;28;20255;-82
2020/12/31 02:28:46;;;;;;;9.70;7.27;;;;;;;3.19;77.73;97094.25;4981614;28;20220;-83
2020/12/31 02:31:12;;;;;;;12.33;7.27;;;;;;;3.25;77.84;97094.09;4981153;28;20306;-84
2020/12/31 02:33:38;;;;;;;10.53;7.17;;;;;;;3.33;77.64;97104.22;4982356;28;20231;-84
2020/12/31 02:36:05;;;;;;;9.83;6.70;;;;;;;3.37;77.16;97102.41;4977083;28;20248;-82
2020/12/31 02:38:31;;;;;;;9.73;7.07;;;;;;;3.36;77.35;97103.28;4981928;28;20231;-82
2020/12/31 02:40:58;;;;;;;10.90;7.20;;;;;;;3.38;77.42;97101.50;4981275;28;20247;-83
2020/12/31 02:43:24;;;;;;;11.60;7.40;;;;;;;3.38;77.10;97104.94;4981610;28;20227;-82
2020/12/31 02:45:50;;;;;;;10.27;7.57;;;;;;;3.40;77.14;97099.72;4982202;28;20251;-84
2020/12/31 02:48:17;;;;;;;8.93;6.90;;;;;;;3.38;77.34;97098.91;4984999;28;20220;-82
2020/12/31 02:50:43;;;;;;;8.97;6.87;;;;;;;3.34;77.12;97098.16;4984706;28;20259;-82
2020/12/31 02:53:09;;;;;;;10.67;7.10;;;;;;;3.34;77.57;97099.88;4983237;28;20236;-83
2020/12/31 02:55:35;;;;;;;10.30;6.93;;;;;;;3.33;77.31;97098.19;4980191;28;20252;-84
2020/12/31 02:58:02;;;;;;;9.93;7.17;;;;;;;3.39;76.96;97098.03;4982283;28;20223;-82
2020/12/31 03:00:29;;;;;;;9.87;7.20;;;;;;;3.39;77.43;97100.63;4979338;28;20252;-84
2020/12/31 03:02:55;;;;;;;10.23;7.03;;;;;;;3.38;77.34;97091.19;4980812;28;20212;-83
2020/12/31 03:05:21;;;;;;;11.37;7.40;;;;;;;3.37;77.32;97092.91;4978571;28;20240;-81
2020/12/31 03:07:47;;;;;;;9.47;7.30;;;;;;;3.32;77.55;97088.78;4980727;28;20222;-83
2020/12/31 03:10:14;;;;;;;10.60;8.50;;;;;;;3.32;77.65;97093.94;4984173;28;20228;-83
2020/12/31 03:12:40;;;;;;;10.97;7.57;;;;;;;3.36;77.39;97093.78;4983929;28;20254;-83
2020/12/31 03:15:09;;;;;;;9.37;7.33;;;;;;;3.40;77.61;97092.84;4979190;28;20706;-83
2020/12/31 03:17:35;;;;;;;10.17;6.93;;;;;;;3.44;77.46;97089.28;4981344;28;20224;-83
2020/12/31 03:20:02;;;;;;;11.07;7.03;;;;;;;3.41;77.61;97088.53;4982150;28;20219;-83
2020/12/31 03:22:28;;;;;;;9.00;6.87;;;;;;;3.40;77.29;97082.53;4986203;28;20601;-82
2020/12/31 03:24:54;;;;;;;8.77;6.97;;;;;;;3.44;77.31;97081.56;4980750;28;20266;-83
2020/12/31 03:27:20;;;;;;;12.30;7.13;;;;;;;3.44;77.57;97073.00;4983394;28;20244;-82
2020/12/31 03:29:47;;;;;;;10.27;7.37;;;;;;;3.44;77.43;97076.41;4981018;28;20221;-85
2020/12/31 03:32:14;;;;;;;10.63;7.13;;;;;;;3.44;77.65;97075.56;4980638;28;20298;-83
2020/12/31 03:34:40;;;;;;;10.83;7.40;;;;;;;3.47;77.33;97070.31;4980951;28;20223;-83
2020/12/31 03:37:06;;;;;;;11.23;7.70;;;;;;;3.52;77.10;97071.03;4980578;28;20270;-84
2020/12/31 03:39:33;;;;;;;9.17;6.87;;;;;;;3.53;77.28;97066.72;4981089;28;20238;-82
2020/12/31 03:41:59;;;;;;;10.87;7.80;;;;;;;3.51;77.23;97059.03;4978694;28;20251;-84
2020/12/31 03:44:25;;;;;;;10.03;7.27;;;;;;;3.49;77.04;97055.63;4980513;28;21000;-83
2020/12/31 03:46:51;;;;;;;9.33;7.63;;;;;;;3.53;76.90;97059.84;4979593;28;20290;-82
2020/12/31 03:49:18;;;;;;;9.37;7.47;;;;;;;3.50;77.18;97064.25;4977263;28;20747;-83
2020/12/31 03:51:45;;;;;;;8.90;7.17;;;;;;;3.44;77.07;97060.09;4979594;28;20770;-83
2020/12/31 03:54:11;;;;;;;9.43;6.87;;;;;;;3.42;77.29;97067.03;4982486;28;20235;-83
2020/12/31 03:56:37;;;;;;;8.93;7.23;;;;;;;3.39;77.22;97060.22;4983432;28;20297;-83
2020/12/31 03:59:04;;;;;;;9.97;7.23;;;;;;;3.43;77.19;97061.81;4983891;28;20803;-83
2020/12/31 04:01:30;;;;;;;9.70;7.30;;;;;;;3.41;77.33;97057.59;4978836;28;20240;-83
2020/12/31 04:03:57;;;;;;;10.53;7.57;;;;;;;3.38;77.13;97052.50;4983972;28;20216;-84
2020/12/31 04:06:24;;;;;;;9.87;6.87;;;;;;;3.35;77.27;97052.63;4981431;28;20484;-84
2020/12/31 04:08:50;;;;;;;8.80;7.30;;;;;;;3.32;77.42;97048.38;4983648;28;20220;-83
2020/12/31 04:11:17;;;;;;;10.70;7.30;;;;;;;3.35;77.31;97042.31;4983390;28;20239;-82
2020/12/31 04:13:43;;;;;;;9.30;7.83;;;;;;;3.38;77.46;97042.22;4983843;28;20243;-83
2020/12/31 04:16:09;;;;;;;10.37;7.90;;;;;;;3.38;77.26;97042.22;4979063;28;20244;-83
2020/12/31 04:18:35;;;;;;;9.57;7.13;;;;;;;3.35;77.58;97045.72;4979195;28;20228;-84
2020/12/31 04:21:02;;;;;;;10.93;6.87;;;;;;;3.30;77.82;97044.16;4977355;28;20452;-82
2020/12/31 04:23:29;;;;;;;9.77;7.43;;;;;;;3.22;78.14;97047.78;4979794;28;20230;-83
2020/12/31 04:25:55;;;;;;;9.50;7.03;;;;;;;3.18;77.80;97041.03;4981190;28;20244;-83
2020/12/31 04:28:21;;;;;;;10.53;7.40;;;;;;;3.19;78.10;97036.72;4984849;28;20227;-84
2020/12/31 04:30:48;;;;;;;10.30;7.57;;;;;;;3.20;77.93;97028.94;4979179;28;20239;-83
2020/12/31 04:33:14;;;;;;;10.43;7.63;;;;;;;3.18;77.70;97023.00;4984426;28;20256;-83
2020/12/31 04:35:40;;;;;;;10.40;8.27;;;;;;;3.14;77.63;97016.22;4983882;28;20265;-83
2020/12/31 04:38:07;;;;;;;10.30;7.67;;;;;;;3.05;77.73;97006.16;4979958;28;20258;-82
2020/12/31 04:40:35;;;;;;;10.30;7.37;;;;;;;2.96;77.80;97004.69;4984003;28;20327;-84
2020/12/31 04:43:01;;;;;;;9.73;7.57;;;;;;;2.92;78.12;97017.69;4981503;28;20216;-84
2020/12/31 04:45:29;;;;;;;11.00;7.80;;;;;;;2.85;77.94;97012.69;4976781;28;20255;-84
2020/12/31 04:48:13;;;;;;;11.33;7.80;;;;;;;2.78;77.82;97015.47;4980228;28;20217;-82
2020/12/31 04:50:40;;;;;;;9.80;7.70;;;;;;;2.72;78.13;97019.06;4979509;28;20267;-85
2020/12/31 04:53:07;;;;;;;9.37;7.07;;;;;;;2.65;78.21;97020.09;4980000;28;20371;-83
2020/12/31 04:55:40;;;;;;;10.00;7.50;;;;;;;2.57;78.26;97014.28;4978337;28;20244;-84
2020/12/31 04:58:08;;;;;;;12.27;8.07;;;;;;;2.51;78.44;97013.53;4980736;28;20216;-83
2020/12/31 05:00:34;;;;;;;9.77;7.27;;;;;;;2.47;78.51;97016.25;4977114;28;20248;-84
2020/12/31 05:03:01;;;;;;;9.20;7.17;;;;;;;2.43;78.54;97018.03;4979426;28;20216;-84
2020/12/31 05:05:27;;;;;;;13.17;9.80;;;;;;;2.39;78.55;97023.28;4977556;28;20243;-83
2020/12/31 05:07:54;;;;;;;11.80;8.60;;;;;;;2.33;78.75;97015.72;4980473;28;20216;-84
2020/12/31 05:10:20;;;;;;;14.67;8.73;;;;;;;2.31;78.72;97021.75;4982019;28;20208;-82
2020/12/31 05:12:56;;;;;;;11.43;7.97;;;;;;;2.29;78.79;97015.78;4979726;28;20240;-83
2020/12/31 05:15:32;;;;;;;13.10;9.70;;;;;;;2.32;78.50;97025.19;4982240;28;20235;-83
2020/12/31 05:17:58;;;;;;;15.87;10.23;;;;;;;2.30;78.62;97024.38;4981317;28;20226;-81
2020/12/31 05:20:30;;;;;;;13.10;9.00;;;;;;;2.25;78.32;97026.19;4984020;28;20236;-83
2020/12/31 05:23:09;;;;;;;13.43;8.83;;;;;;;2.18;78.29;97029.78;4981527;28;20212;-84
2020/12/31 05:25:36;;;;;;;12.13;8.60;;;;;;;2.11;78.73;97019.66;4976547;28;20251;-82
2020/12/31 05:28:03;;;;;;;12.43;8.70;;;;;;;2.08;79.02;97029.16;4978259;28;20230;-82
2020/12/31 05:30:30;;;;;;;12.90;8.13;;;;;;;2.05;78.93;97022.34;4977582;28;20236;-83
2020/12/31 05:33:04;;;;;;;12.73;8.57;;;;;;;2.05;78.54;97022.34;4982543;28;20997;-84
2020/12/31 05:35:30;;;;;;;11.03;8.30;;;;;;;2.07;78.85;97033.44;4982875;28;20293;-82
2020/12/31 05:37:56;;;;;;;13.07;8.80;;;;;;;2.11;78.65;97029.94;4975155;28;20212;-83
2020/12/31 05:40:23;;;;;;;14.43;8.33;;;;;;;2.20;78.70;97038.31;4978456;28;20787;-82
2020/12/31 05:42:49;;;;;;;12.57;8.67;;;;;;;2.24;78.53;97039.94;4978396;28;20279;-82
2020/12/31 05:45:16;;;;;;;11.80;8.00;;;;;;;2.27;78.31;97034.72;4977829;28;20226;-82
2020/12/31 05:47:48;;;;;;;13.23;7.80;;;;;;;2.26;78.24;97038.16;4978925;28;20223;-82
2020/12/31 05:50:18;;;;;;;10.07;7.43;;;;;;;2.26;78.10;97044.19;4981451;28;20230;-84
2020/12/31 05:52:45;;;;;;;10.83;7.60;;;;;;;2.27;78.39;97050.16;4980695;28;20282;-82
2020/12/31 05:55:11;;;;;;;10.50;7.50;;;;;;;2.29;78.21;97048.41;4978023;28;20386;-81
2020/12/31 05:57:45;;;;;;;9.27;7.40;;;;;;;2.34;78.12;97046.56;4982508;28;20216;-82
2020/12/31 06:00:13;;;;;;;11.23;7.67;;;;;;;2.34;78.08;97051.72;4979117;28;21027;-83
2020/12/31 06:02:45;;;;;;;9.30;7.00;;;;;;;2.34;78.02;97045.72;4965880;28;20223;-83
2020/12/31 06:05:13;;;;;;;11.50;8.30;;;;;;;2.37;78.23;97051.66;4984545;28;20299;-84
2020/12/31 06:07:44;;;;;;;11.17;7.73;;;;;;;2.33;78.07;97039.72;4983745;28;20767;-83
2020/12/31 06:10:12;;;;;;;12.20;9.07;;;;;;;2.40;78.26;97050.72;4980941;28;20235;-83
2020/12/31 06:12:49;;;;;;;12.03;8.53;;;;;;;2.42;78.00;97052.38;4986082;28;20274;-83
2020/12/31 06:15:17;;;;;;;12.47;8.60;;;;;;;2.45;78.20;97054.03;4981010;28;20230;-83
2020/12/31 06:17:45;;;;;;;11.40;8.57;;;;;;;2.47;78.08;97053.09;4981854;28;20220;-83
2020/12/31 06:20:13;;;;;;;12.13;7.83;;;;;;;2.50;78.19;97052.22;4984481;28;20208;-82
2020/12/31 06:22:59;;;;;;;12.17;7.90;;;;;;;2.55;78.08;97050.34;4980507;28;20220;-82
2020/12/31 06:25:37;;;;;;;12.83;8.37;;;;;;;2.56;78.12;97052.06;4981894;28;20266;-83
2020/12/31 06:28:06;;;;;;;14.70;8.90;;;;;;;2.55;78.07;97057.22;4982310;28;20220;-84
2020/12/31 06:30:33;;;;;;;12.43;9.10;;;;;;;2.55;78.04;97059.81;4981066;28;20269;-82
2020/12/31 06:33:06;;;;;;;13.57;9.37;;;;;;;2.56;78.04;97058.94;4982084;28;20232;-83
2020/12/31 06:35:33;;;;;;;12.43;9.00;;;;;;;2.58;78.39;97049.44;4980269;28;20244;-83
2020/12/31 06:37:59;;;;;;;14.27;9.53;;;;;;;2.58;78.29;97054.59;4983375;28;20227;-83
2020/12/31 06:40:27;;;;;;;15.90;9.63;;;;;;;2.62;78.19;97058.78;4985114;28;20279;-84
2020/12/31 06:43:04;;;;;;;14.10;10.13;;;;;;;2.64;78.15;97060.41;4982746;28;20220;-83
2020/12/31 06:45:38;;;;;;;12.40;9.97;;;;;;;2.65;77.89;97056.13;4985188;28;20247;-83
2020/12/31 06:48:35;;;;;;;13.67;9.17;;;;;;;2.70;77.77;97054.28;4980424;28;20227;-83
2020/12/31 06:51:03;;;;;;;13.87;10.23;;;;;;;2.69;77.99;97052.59;4981190;28;20248;-83
2020/12/31 06:53:34;;;;;;;13.20;9.33;;;;;;;2.68;77.89;97044.03;4987095;28;20235;-83
2020/12/31 06:56:01;;;;;;;12.33;8.43;;;;;;;2.68;78.04;97045.75;4980391;28;20267;-84
2020/12/31 06:58:27;;;;;;;13.10;9.60;;;;;;;2.66;77.96;97039.78;4980187;28;20223;-82
2020/12/31 07:00:54;;;;;;;14.07;9.63;;;;;;;2.65;78.17;97045.84;4979165;28;20279;-83
2020/12/31 07:03:48;;;;;;;14.43;9.97;;;;;;;2.65;77.87;97051.00;4981540;28;20218;-82
2020/12/31 07:06:32;;;;;;;13.47;9.93;;;;;;;2.66;77.88;97047.50;4948010;28;20888;-82
2020/12/31 07:09:04;;;;;;;16.33;10.87;;;;;;;2.67;77.96;97038.91;4984591;28;20231;-82
2020/12/31 07:11:40;;;;;;;13.73;10.60;;;;;;;2.64;77.91;97044.13;4985657;28;20239;-82
2020/12/31 07:14:22;;;;;;;14.30;10.20;;;;;;;2.65;77.69;97048.41;4983168;28;20687;-82
2020/12/31 07:16:56;;;;;;;16.63;10.67;;;;;;;2.64;77.75;97038.97;4980110;28;20881;-82
2020/12/31 07:19:28;;;;;;;14.10;9.93;;;;;;;2.61;78.16;97047.66;4984988;28;20345;-83
2020/12/31 07:21:54;;;;;;;15.50;11.03;;;;;;;2.58;77.92;97055.44;4983610;28;20244;-84
2020/12/31 07:24:22;;;;;;;16.30;11.57;;;;;;;2.57;77.99;97060.59;4986671;28;20238;-83
2020/12/31 07:26:49;;;;;;;15.47;10.40;;;;;;;2.49;78.51;97056.50;4987065;28;20713;-83
2020/12/31 07:29:27;;;;;;;15.00;11.03;;;;;;;2.42;78.28;97054.94;4988396;28;20228;-83
2020/12/31 07:31:53;;;;;;;17.00;11.00;;;;;;;2.37;78.55;97051.66;4986167;28;20242;-83
2020/12/31 07:34:21;;;;;;;16.10;10.93;;;;;;;2.37;78.41;97046.50;4988387;28;20247;-83
2020/12/31 07:36:57;;;;;;;18.10;11.90;;;;;;;2.34;78.33;97051.72;4986910;28;20352;-83
2020/12/31 07:39:24;;;;;;;15.17;10.43;;;;;;;2.32;78.58;97045.75;4985861;28;20223;-83
2020/12/31 07:41:50;;;;;;;16.47;11.80;;;;;;;2.30;78.88;97053.50;4984268;28;20246;-83
2020/12/31 07:44:17;;;;;;;16.53;11.73;;;;;;;2.28;78.82;97051.88;4984575;28;20298;-84
2020/12/31 07:46:43;;;;;;;16.00;11.03;;;;;;;2.25;79.02;97050.19;4983266;28;20643;-83
2020/12/31 07:49:11;;;;;;;15.90;11.40;;;;;;;2.27;79.00;97051.00;4984544;28;20224;-83
2020/12/31 07:51:37;;;;;;;15.60;11.27;;;;;;;2.25;78.77;97050.19;4984224;28;20247;-83
2020/12/31 07:54:04;;;;;;;17.13;11.77;;;;;;;2.23;79.03;97045.97;4983077;28;20250;-83
2020/12/31 07:56:31;;;;;;;17.03;12.00;;;;;;;2.22;78.87;97046.84;4987758;28;20247;-82
2020/12/31 07:59:01;;;;;;;17.30;12.07;;;;;;;2.21;78.99;97045.16;4983171;28;20216;-82
2020/12/31 08:01:27;;;;;;;16.03;11.03;;;;;;;2.18;79.21;97042.66;4987896;28;20738;-83
2020/12/31 08:03:54;;;;;;;16.80;12.50;;;;;;;2.17;79.13;97044.41;4987152;28;20235;-83
2020/12/31 08:06:27;;;;;;;17.97;12.20;;;;;;;2.16;79.09;97039.28;4985950;28;20969;-83
2020/12/31 08:08:56;;;;;;;14.67;10.60;;;;;;;2.18;79.11;97029.78;4985496;28;20226;-82
2020/12/31 08:11:23;;;;;;;16.07;11.17;;;;;;;2.19;79.19;97034.91;4984425;28;20246;-84
2020/12/31 08:14:01;;;;;;;18.20;12.27;;;;;;;2.11;78.86;97023.94;4986326;28;20240;-84
2020/12/31 08:16:27;;;;;;;16.43;11.53;;;;;;;2.12;79.05;97026.47;4987476;28;20245;-83
2020/12/31 08:18:54;;;;;;;17.63;12.50;;;;;;;2.11;78.84;97029.94;4986948;28;20254;-83
2020/12/31 08:21:21;;;;;;;16.30;11.50;;;;;;;2.11;78.96;97027.38;4988216;28;20243;-83
2020/12/31 08:23:52;;;;;;;18.07;12.30;;;;;;;2.10;79.03;97024.84;4983686;28;20278;-83
2020/12/31 08:26:20;;;;;;;17.00;11.67;;;;;;;2.13;79.04;97022.16;4984285;28;20359;-83
2020/12/31 08:28:48;;;;;;;16.93;11.73;;;;;;;2.13;79.10;97032.47;4984852;28;20274;-83
2020/12/31 08:31:15;;;;;;;14.60;11.00;;;;;;;2.17;78.94;97030.66;4981776;28;20239;-82
2020/12/31 08:33:43;;;;;;;17.47;11.33;;;;;;;2.22;78.74;97032.25;4987177;28;20309;-83
2020/12/31 08:36:09;;;;;;;15.80;11.43;;;;;;;2.23;78.72;97025.41;4983793;28;20315;-83
2020/12/31 08:38:37;;;;;;;15.80;11.93;;;;;;;2.23;78.48;97028.81;4987686;28;20215;-83
2020/12/31 08:41:06;;;;;;;17.07;11.37;;;;;;;2.28;78.74;97034.69;4983621;28;20243;-83
2020/12/31 08:43:34;;;;;;;17.47;11.23;;;;;;;2.33;78.58;97032.00;4983881;28;20220;-82
2020/12/31 08:46:03;;;;;;;15.20;10.87;;;;;;;2.32;78.47;97032.91;4982920;28;20248;-82
2020/12/31 08:48:30;;;;;;;15.00;11.33;;;;;;;2.34;78.66;97032.88;4982337;28;20310;-82
2020/12/31 08:51:04;;;;;;;16.90;10.87;;;;;;;2.34;78.34;97025.97;4982235;28;20257;-83
2020/12/31 08:53:31;;;;;;;14.53;10.60;;;;;;;2.33;78.49;97032.00;4986159;28;20236;-83
2020/12/31 08:55:57;;;;;;;15.33;10.90;;;;;;;2.31;78.43;97026.88;4985208;28;20759;-83
2020/12/31 08:58:28;;;;;;;14.43;10.87;;;;;;;2.33;78.47;97029.44;4983604;28;20230;-84
2020/12/31 09:00:54;;;;;;;14.67;10.13;;;;;;;2.36;78.47;97028.53;4982062;28;20239;-82
2020/12/31 09:03:22;;;;;;;14.03;9.80;;;;;;;2.35;78.46;97032.81;4982568;28;20251;-82
2020/12/31 09:05:56;;;;;;;14.87;11.23;;;;;;;2.36;78.37;97033.66;4981029;28;20740;-82
2020/12/31 09:08:22;;;;;;;12.53;9.43;;;;;;;2.37;78.18;97031.06;4981959;28;20227;-83
2020/12/31 09:10:48;;;;;;;14.57;9.93;;;;;;;2.38;78.37;97025.03;4981394;28;20243;-83
2020/12/31 09:13:19;;;;;;;15.70;10.77;;;;;;;2.39;78.25;97024.16;4984667;28;20254;-86
2020/12/31 09:15:45;;;;;;;11.77;9.37;;;;;;;2.43;78.08;97024.94;4975922;28;20243;-86
2020/12/31 09:18:17;;;;;;;12.37;8.40;;;;;;;2.43;77.79;97024.94;4979958;28;20219;-86
2020/12/31 09:20:46;;;;;;;12.53;8.77;;;;;;;2.45;78.08;97026.56;4981986;28;20235;-86
2020/12/31 09:23:13;;;;;;;13.37;9.80;;;;;;;2.48;77.77;97023.94;4984616;28;20224;-86
2020/12/31 09:25:51;;;;;;;12.50;8.70;;;;;;;2.44;77.54;97004.28;4980897;28;20635;-86
2020/12/31 09:28:18;;;;;;;11.70;8.87;;;;;;;2.56;77.78;97015.19;4985076;28;20614;-85
2020/12/31 09:30:44;;;;;;;10.30;7.33;;;;;;;2.54;77.73;96999.75;4982280;28;20243;-84
2020/12/31 09:33:11;;;;;;;10.20;7.83;;;;;;;2.58;77.22;97003.94;4980383;28;20225;-86
2020/12/31 09:35:38;;;;;;;9.77;7.17;;;;;;;2.64;77.27;96998.63;4976795;28;20258;-85
2020/12/31 09:38:05;;;;;;;9.50;7.13;;;;;;;2.66;77.22;96993.44;4979917;28;20208;-85
2020/12/31 09:40:31;;;;;;;9.50;6.63;;;;;;;2.70;77.24;97002.78;4982621;28;20267;-85
2020/12/31 09:42:58;;;;;;;8.73;6.73;;;;;;;2.76;76.61;97001.78;4982339;28;20212;-85
2020/12/31 09:45:24;;;;;;;8.20;6.23;;;;;;;2.77;76.38;97004.31;4981943;28;20471;-83
2020/12/31 09:47:50;;;;;;;8.10;5.97;;;;;;;2.79;76.55;96999.13;4981962;28;20219;-85
2020/12/31 09:50:17;;;;;;;7.80;6.30;;;;;;;2.81;76.04;97003.38;4979326;28;20216;-83
2020/12/31 09:52:44;;;;;;;8.57;6.07;;;;;;;2.82;76.03;96996.47;4980439;28;20236;-83
2020/12/31 09:55:11;;;;;;;7.87;5.60;;;;;;;2.82;75.54;97002.47;4978278;28;20673;-85
2020/12/31 09:57:37;;;;;;;8.53;6.27;;;;;;;2.86;75.81;96993.78;4980351;28;20258;-83
2020/12/31 10:00:04;;;;;;;6.50;5.23;;;;;;;2.85;75.49;96992.09;4979026;28;20227;-84
2020/12/31 10:02:30;;;;;;;7.73;5.50;;;;;;;2.87;74.96;96992.91;4983922;28;20689;-83
2020/12/31 10:04:56;;;;;;;7.00;5.07;;;;;;;2.88;74.74;96989.41;4983010;28;20319;-84
2020/12/31 10:07:23;;;;;;;6.37;4.83;;;;;;;2.95;74.66;96989.28;4977172;28;20236;-84
2020/12/31 10:09:49;;;;;;;5.83;5.13;;;;;;;3.00;74.44;96990.00;4979109;28;20697;-85
2020/12/31 10:12:16;;;;;;;7.37;5.30;;;;;;;3.01;74.58;96991.69;4977519;28;20235;-84
2020/12/31 10:14:43;;;;;;;11.50;5.10;;;;;;;3.04;74.51;96984.72;4979551;28;20332;-86
2020/12/31 10:17:10;;;;;;;7.43;5.10;;;;;;;3.09;74.29;96982.03;4982706;28;20668;-83
2020/12/31 10:19:36;;;;;;;5.67;4.67;;;;;;;3.09;74.23;96982.84;4981201;28;20222;-81
2020/12/31 10:22:03;;;;;;;7.00;4.63;;;;;;;3.16;74.02;96975.81;4979348;28;20243;-82
2020/12/31 10:24:29;;;;;;;5.80;4.83;;;;;;;3.20;73.94;96977.41;4980899;28;20338;-83
2020/12/31 10:26:56;;;;;;;5.73;4.63;;;;;;;3.21;73.79;96961.03;4979804;28;20242;-85
2020/12/31 10:29:23;;;;;;;6.27;4.77;;;;;;;3.27;73.93;96966.06;4981545;28;20728;-84
2020/12/31 10:31:50;;;;;;;5.47;3.70;;;;;;;3.38;73.16;96965.75;4980393;28;20831;-85
2020/12/31 10:34:16;;;;;;;4.43;3.50;;;;;;;3.45;71.71;96961.22;4982553;28;20780;-84
2020/12/31 10:36:42;;;;;;;5.30;3.80;;;;;;;3.61;70.56;96956.47;4980660;28;20255;-85
2020/12/31 10:39:09;;;;;;;5.47;3.60;;;;;;;3.69;70.94;96961.41;4980465;28;20681;-81
2020/12/31 10:41:36;;;;;;;3.90;3.40;;;;;;;3.78;70.86;96949.06;4978743;28;20254;-84
2020/12/31 10:44:02;;;;;;;6.07;3.77;;;;;;;3.89;70.92;96946.16;4978818;28;20216;-83
2020/12/31 10:46:30;;;;;;;4.67;3.50;;;;;;;3.95;69.46;96934.78;4977272;28;20279;-84
2020/12/31 10:48:56;;;;;;;4.53;3.20;;;;;;;4.04;68.72;96940.53;4979863;28;20216;-83
2020/12/31 10:51:23;;;;;;;4.60;3.50;;;;;;;4.10;69.13;96933.47;4979881;28;20644;-82
2020/12/31 10:53:49;;;;;;;3.97;3.07;;;;;;;4.10;68.18;96933.47;4979851;28;20242;-83
2020/12/31 10:56:19;;;;;;;3.83;3.37;;;;;;;4.13;67.63;96928.22;4978789;28;20247;-82
2020/12/31 10:58:46;;;;;;;4.60;3.03;;;;;;;4.14;67.47;96924.75;4982501;28;20220;-83
2020/12/31 11:01:14;;;;;;;3.93;3.13;;;;;;;4.21;67.13;96923.66;4985901;28;20244;-84
2020/12/31 11:03:42;;;;;;;3.30;2.53;;;;;;;4.26;66.81;96919.16;4984089;28;20934;-82
2020/12/31 11:06:09;;;;;;;3.93;2.93;;;;;;;4.34;66.62;96909.44;4982884;28;20246;-83
2020/12/31 11:08:35;;;;;;;3.03;2.67;;;;;;;4.44;65.62;96903.06;4983677;28;20303;-82
2020/12/31 11:11:01;;;;;;;3.50;2.67;;;;;;;4.55;65.18;96897.53;4981669;28;20248;-83
2020/12/31 11:13:28;;;;;;;2.87;2.40;;;;;;;4.63;65.46;96892.09;4983345;28;20326;-82
2020/12/31 11:15:54;;;;;;;4.57;2.80;;;;;;;4.71;65.56;96895.25;4981461;28;20804;-82
2020/12/31 11:18:21;;;;;;;3.57;2.80;;;;;;;4.75;64.72;96891.66;4980842;28;20224;-82
2020/12/31 11:20:52;;;;;;;4.93;2.70;;;;;;;4.87;64.75;96879.22;4983619;28;20824;-82
2020/12/31 11:23:18;;;;;;;4.70;3.33;;;;;;;4.92;64.71;96872.13;4985715;28;20226;-82
2020/12/31 11:25:45;;;;;;;4.33;3.00;;;;;;;5.00;64.84;96870.97;4983512;28;20244;-82
2020/12/31 11:28:11;;;;;;;3.97;3.10;;;;;;;5.09;64.49;96867.22;4981928;28;20601;-83
2020/12/31 11:30:37;;;;;;;3.50;2.63;;;;;;;5.21;64.68;96869.31;4984443;28;20252;-82
2020/12/31 11:33:04;;;;;;;4.50;3.30;;;;;;;6.00;62.18;96862.88;4984064;28;20239;-79
2020/12/31 11:35:30;;;;;;;4.97;3.13;;;;;;;5.66;62.86;96851.22;4978788;28;20240;-83
2020/12/31 11:38:00;;;;;;;4.37;2.60;;;;;;;5.58;62.34;96846.38;4982239;28;20307;-83
2020/12/31 11:40:26;;;;;;;3.33;2.50;;;;;;;5.56;62.18;96849.00;4976347;28;20322;-84